Vestre Fjordpark Heliport

DK-0041 · North Denmark, 丹麦

罗盘
风向 的 风向 090° 直升机
风: 7 kt, 3 beaufort
0 ft 5.000 10.000 15.000 20.000
Cloud Cloud Cloud Cloud
SCT 3.200
Cloud Cloud Cloud Cloud
SCT 3.600
Cloud Cloud Cloud Cloud Cloud Cloud
BKN 14.000
METAR EKYT 020012Z AUTO 09007KT 2900 BR SCT032/// SCT036/// BKN140/// 05/05 Q1007

METAR Vestre Fjordpark Heliport - DK-0041

Vestre Fjordpark Heliport是,丹麦中的直升机场。 该机场位于纬度57,05865和经度9,88779。 这个机场没有ICAO代码,我们使用DK-0041作为参考。 机场在Kobenhavn FIR中。

该航空气象观测是针对Aalborg Airport在2024年3月2日 01:12, 当地时间进行的。

机场观察

风向为090°,速度为7 kt。

可见度为2,9 km。

有疏云,零星散落的云朵在3.200 ft的高度, 疏云,零星散落的云朵在3.600 ft的高度 和 碎云在14.000 ft的高度。 破损或更高的上限为14.000 ft。

当前天气为薄雾。 温度为5 °C,阵风为1 °C。 露点为5 °C,相对湿度为100%。 海平面上的气压为1007 hPa (QNH)。

白天

今天,太阳从07:09升起,在17:55降落。 这适用于Vestre Fjordpark Heliport,世界夏令时可能有所不同。 当地时间与世界标准时间之间的时差为+1 小时。 当前,没有夏令时有效。

公司介绍

我们没有关于这个机场的公司信息。

体会

到Vliegles.nl去找飞行课程,跳伞和其他飞行体验。 浏览页面,了解Vestre Fjordpark Heliport附近所有可用的活动。 你也可以使用搜索功能来寻找你所在地附近的特定飞行课程、跳伞或其他飞行体验。

乌云

3.200 ft SCT 疏云,零星散落的云朵
3.600 ft SCT 疏云,零星散落的云朵
14.000 ft BKN 碎云

温度 & 天气

天气 薄雾
温度 5 °C
露点 5 °C
相对湿度 100%
风寒 1 °C
Kp-index 0 (0-9)

白天

日出
07:09 (5:54)
中午
12:32
日落
17:55

小工具

你想在你的网站上有一个关于Vestre Fjordpark Heliport的当前航空天气(METAR)的小部件吗?

显示HTML代码
?>